Terminal Aerodrome Forecast
Issued by NWS

Current Version | Previous Version | Graphics & Text | Print | Product List | Glossary On
Versions: 1 2 3 4 5 6 7 8 9 10 11 12 13 14 15 16 17 18 19 20 21 22 23
000
FTUS41 KRLX 292300
TAFCKB
TAF
KCKB 292325Z 3000/3024 VRB03KT P6SM SCT060
     FM300800 00000KT 5SM BR SCT080
     FM301200 00000KT P6SM SCT080
     FM301400 23004KT P6SM BKN060
     FM301800 27005KT P6SM VCSH BKN050=

USA.gov is the U.S. government's official web portal to all federal, state and local government web resources and services.